Time;durP1;ratioP1;P1;durP2;ratioP2;P2;SDS_P1;SDS_P2;PMS_P1;PMS_P2;Temp;Humidity;BMP_temperature;BMP_pressure;BME280_temperature;BME280_humidity;BME280_pressure;Samples;Min_cycle;Max_cycle;Signal;HPM_P1;HPM_P2
2020/12/22 00:01:17;;;;;;;11.55;9.23;;;20.30;56.90;;;;;;5083997;28;20048;-52
2020/12/22 00:03:44;;;;;;;16.27;8.90;;;20.30;56.90;;;;;;5097696;28;20094;-50
2020/12/22 00:06:12;;;;;;;9.95;7.25;;;20.30;56.90;;;;;;5080920;28;20512;-54
2020/12/22 00:08:38;;;;;;;12.95;8.75;;;20.30;56.90;;;;;;5091735;28;20048;-50
2020/12/22 00:11:05;;;;;;;11.15;8.15;;;20.30;56.90;;;;;;5092502;28;20545;-50
2020/12/22 00:13:32;;;;;;;10.50;8.15;;;20.30;56.90;;;;;;5082524;28;20045;-50
2020/12/22 00:15:59;;;;;;;11.43;7.80;;;20.30;56.90;;;;;;5090266;28;20075;-49
2020/12/22 00:18:26;;;;;;;11.95;7.88;;;20.30;56.90;;;;;;5082927;28;20515;-49
2020/12/22 00:20:52;;;;;;;11.90;8.25;;;20.30;56.90;;;;;;5092467;28;20040;-50
2020/12/22 00:23:19;;;;;;;8.85;7.32;;;20.30;56.90;;;;;;5088468;28;20067;-51
2020/12/22 00:25:46;;;;;;;14.25;7.78;;;20.30;56.90;;;;;;5083047;28;20052;-51
2020/12/22 00:28:13;;;;;;;9.68;6.72;;;20.30;56.90;;;;;;5102451;28;20416;-51
2020/12/22 00:30:40;;;;;;;10.05;6.80;;;20.30;56.90;;;;;;5082411;28;20064;-49
2020/12/22 00:33:08;;;;;;;11.70;7.55;;;20.30;56.90;;;;;;5092045;28;20044;-52
2020/12/22 00:35:34;;;;;;;9.13;6.22;;;20.30;57.00;;;;;;5084315;28;20064;-50
2020/12/22 00:38:01;;;;;;;11.63;7.53;;;20.30;56.90;;;;;;5088341;28;20516;-51
2020/12/22 00:40:28;;;;;;;9.50;6.90;;;20.30;57.00;;;;;;5101053;28;20044;-49
2020/12/22 00:42:55;;;;;;;7.60;5.57;;;20.30;57.00;;;;;;5081565;28;20055;-52
2020/12/22 00:45:22;;;;;;;10.50;7.47;;;20.30;57.00;;;;;;5089417;28;20043;-52
2020/12/22 00:47:49;;;;;;;9.10;6.25;;;20.30;57.00;;;;;;5077233;28;20080;-49
2020/12/22 00:50:16;;;;;;;7.00;5.40;;;20.30;57.00;;;;;;5090642;28;20578;-49
2020/12/22 00:52:43;;;;;;;9.65;7.72;;;20.30;57.60;;;;;;5098128;28;20059;-50
2020/12/22 00:55:15;;;;;;;8.88;5.55;;;20.30;57.10;;;;;;5083454;28;20058;-50
2020/12/22 00:57:43;;;;;;;9.57;6.38;;;20.30;57.00;;;;;;5098749;28;20075;-52
2020/12/22 01:00:13;;;;;;;9.63;6.22;;;20.30;57.00;;;;;;5093463;28;20039;-49
2020/12/22 01:02:40;;;;;;;9.15;6.03;;;20.30;57.00;;;;;;5095176;28;20510;-50
2020/12/22 01:05:07;;;;;;;8.15;5.78;;;20.30;57.00;;;;;;5098973;28;20044;-53
2020/12/22 01:07:34;;;;;;;7.15;5.70;;;20.30;57.00;;;;;;5091985;28;20089;-53
2020/12/22 01:10:01;;;;;;;11.93;6.32;;;20.30;57.00;;;;;;5105460;28;20046;-52
2020/12/22 01:12:27;;;;;;;9.50;6.78;;;20.30;57.10;;;;;;5086218;28;20134;-51
2020/12/22 01:14:54;;;;;;;8.85;6.15;;;20.30;57.00;;;;;;5094382;28;20047;-51
2020/12/22 01:17:21;;;;;;;9.30;6.35;;;20.40;57.10;;;;;;5085894;28;20132;-49
2020/12/22 01:19:47;;;;;;;6.93;5.57;;;20.30;57.00;;;;;;5090108;28;20038;-53
2020/12/22 01:22:14;;;;;;;7.43;5.35;;;20.40;57.10;;;;;;5105607;28;20047;-49
2020/12/22 01:24:41;;;;;;;5.43;4.80;;;20.30;57.20;;;;;;5080067;28;20063;-50
2020/12/22 01:27:08;;;;;;;6.20;4.60;;;20.40;57.10;;;;;;5096589;28;20130;-51
2020/12/22 01:29:34;;;;;;;8.23;5.45;;;20.40;57.20;;;;;;5087694;27;20056;-49
2020/12/22 01:32:01;;;;;;;5.90;5.07;;;20.40;57.10;;;;;;5091896;28;20051;-49
2020/12/22 01:34:27;;;;;;;5.75;4.20;;;20.40;57.10;;;;;;5101408;28;20063;-54
2020/12/22 01:36:54;;;;;;;5.90;5.25;;;20.40;57.10;;;;;;5084902;28;20138;-51
2020/12/22 01:39:20;;;;;;;6.55;4.55;;;20.30;57.10;;;;;;5100559;28;20075;-50
2020/12/22 01:41:49;;;;;;;6.75;4.90;;;20.40;57.10;;;;;;5083423;28;20394;-51
2020/12/22 01:44:17;;;;;;;7.57;5.13;;;20.40;57.20;;;;;;5093294;28;20043;-48
2020/12/22 01:46:46;;;;;;;7.07;5.53;;;20.40;57.20;;;;;;5091022;28;20511;-50
2020/12/22 01:49:15;;;;;;;5.45;4.43;;;20.40;57.20;;;;;;5085430;28;20537;-52
2020/12/22 01:51:43;;;;;;;6.05;4.53;;;20.40;57.20;;;;;;5100720;28;20139;-52
2020/12/22 01:54:10;;;;;;;4.82;3.63;;;20.40;57.20;;;;;;5083750;28;20045;-49
2020/12/22 01:56:40;;;;;;;5.22;3.83;;;20.40;57.30;;;;;;5095145;28;20047;-49
2020/12/22 01:59:07;;;;;;;8.02;4.50;;;20.40;57.30;;;;;;5094703;28;20074;-53
2020/12/22 02:01:34;;;;;;;5.38;4.00;;;20.40;57.30;;;;;;5085339;28;20045;-53
2020/12/22 02:04:02;;;;;;;5.10;3.30;;;20.40;57.30;;;;;;5104125;28;20043;-50
2020/12/22 02:06:30;;;;;;;3.05;2.70;;;20.40;57.30;;;;;;5085243;28;20096;-49
2020/12/22 02:08:57;;;;;;;4.80;3.67;;;20.40;57.40;;;;;;5095586;28;20043;-54
2020/12/22 02:11:24;;;;;;;5.07;3.40;;;20.40;57.40;;;;;;5089797;28;20504;-53
2020/12/22 02:13:51;;;;;;;3.67;3.35;;;20.40;57.40;;;;;;5089345;28;20040;-50
2020/12/22 02:16:19;;;;;;;4.93;3.67;;;20.40;57.40;;;;;;5094516;28;20039;-52
2020/12/22 02:18:46;;;;;;;5.28;4.05;;;20.40;57.40;;;;;;5083267;28;20427;-50
2020/12/22 02:21:13;;;;;;;4.35;3.67;;;20.40;57.50;;;;;;5100943;28;20047;-50
2020/12/22 02:23:40;;;;;;;4.80;3.42;;;20.40;57.50;;;;;;5084262;28;20135;-49
2020/12/22 02:26:07;;;;;;;4.97;3.75;;;20.40;57.50;;;;;;5085880;28;20136;-50
2020/12/22 02:28:34;;;;;;;4.53;2.97;;;20.40;57.40;;;;;;5102658;28;20040;-49
2020/12/22 02:31:01;;;;;;;3.00;2.75;;;20.40;57.50;;;;;;5082775;28;20492;-50
2020/12/22 02:33:27;;;;;;;3.90;3.58;;;20.40;57.50;;;;;;5100903;28;20571;-48
2020/12/22 02:35:54;;;;;;;4.13;3.40;;;20.40;57.50;;;;;;5080515;28;20122;-49
2020/12/22 02:38:22;;;;;;;3.42;2.42;;;20.40;57.50;;;;;;5083748;28;20066;-54
2020/12/22 02:40:48;;;;;;;4.85;2.38;;;20.40;57.50;;;;;;5098492;28;20044;-48
2020/12/22 02:43:15;;;;;;;3.55;2.90;;;20.40;57.50;;;;;;5085399;28;20055;-48
2020/12/22 02:45:43;;;;;;;4.53;2.78;;;20.40;57.50;;;;;;5090059;28;20512;-54
2020/12/22 02:48:10;;;;;;;3.90;3.03;;;20.40;57.50;;;;;;5082710;28;20059;-48
2020/12/22 02:50:37;;;;;;;2.42;2.22;;;20.40;57.50;;;;;;5093120;28;20533;-50
2020/12/22 02:53:04;;;;;;;4.10;2.80;;;20.40;57.50;;;;;;5093716;28;20389;-49
2020/12/22 02:55:31;;;;;;;3.45;3.10;;;20.40;57.50;;;;;;5084127;28;20045;-48
2020/12/22 02:57:58;;;;;;;5.28;2.83;;;20.40;57.50;;;;;;5102375;28;20052;-53
2020/12/22 03:00:25;;;;;;;3.53;3.03;;;20.40;57.50;;;;;;5084117;28;20130;-48
2020/12/22 03:02:52;;;;;;;3.50;2.60;;;20.40;57.50;;;;;;5092772;28;20493;-52
2020/12/22 03:05:19;;;;;;;2.28;2.08;;;20.40;57.50;;;;;;5089843;28;20036;-51
2020/12/22 03:07:46;;;;;;;3.28;2.83;;;20.40;57.50;;;;;;5087203;28;20098;-48
2020/12/22 03:10:14;;;;;;;4.55;1.85;;;20.40;57.50;;;;;;5100095;28;20115;-48
2020/12/22 03:12:42;;;;;;;1.75;1.65;;;20.40;57.50;;;;;;5086262;28;20127;-49
2020/12/22 03:15:09;;;;;;;2.17;1.98;;;20.50;57.60;;;;;;5087608;28;20441;-51
2020/12/22 03:17:36;;;;;;;1.98;1.73;;;20.40;57.50;;;;;;5080729;28;20094;-50
2020/12/22 03:20:03;;;;;;;3.40;2.50;;;20.40;57.50;;;;;;5089906;28;20044;-51
2020/12/22 03:22:30;;;;;;;1.90;1.75;;;20.40;57.60;;;;;;5101655;28;20062;-48
2020/12/22 03:24:56;;;;;;;3.50;2.45;;;20.40;57.60;;;;;;5082516;28;20044;-55
2020/12/22 03:27:23;;;;;;;2.50;1.48;;;20.50;57.60;;;;;;5097003;28;20083;-50
2020/12/22 03:29:50;;;;;;;2.15;1.67;;;20.50;57.70;;;;;;5077822;28;20052;-50
2020/12/22 03:32:17;;;;;;;2.65;2.45;;;20.50;57.70;;;;;;5091960;28;20045;-53
2020/12/22 03:34:43;;;;;;;3.17;1.95;;;20.50;57.70;;;;;;5098989;28;20526;-52
2020/12/22 03:37:10;;;;;;;3.33;1.85;;;20.50;57.70;;;;;;5081268;28;20139;-48
2020/12/22 03:39:37;;;;;;;2.67;2.03;;;20.50;57.70;;;;;;5098637;28;20064;-50
2020/12/22 03:42:03;;;;;;;2.40;1.50;;;20.50;57.70;;;;;;5080777;28;20132;-50
2020/12/22 03:44:30;;;;;;;2.13;1.60;;;20.50;57.70;;;;;;5085774;28;20127;-49
2020/12/22 03:46:57;;;;;;;1.58;1.48;;;20.50;57.70;;;;;;5086308;28;20601;-50
2020/12/22 03:49:23;;;;;;;1.60;1.48;;;20.50;57.70;;;;;;5081792;28;20052;-49
2020/12/22 03:51:50;;;;;;;1.13;1.10;;;20.50;57.70;;;;;;5099685;28;20046;-51
2020/12/22 03:54:16;;;;;;;2.60;2.00;;;20.50;57.70;;;;;;5082323;28;20055;-50
2020/12/22 03:56:43;;;;;;;1.65;1.52;;;20.50;57.70;;;;;;5094494;28;20050;-50
2020/12/22 03:59:10;;;;;;;1.05;0.95;;;20.50;57.70;;;;;;5091531;28;20793;-53
2020/12/22 04:01:36;;;;;;;1.27;0.75;;;20.50;57.80;;;;;;5086917;28;20032;-52
2020/12/22 04:04:03;;;;;;;2.25;1.10;;;20.50;57.80;;;;;;5099815;28;20052;-51
2020/12/22 04:06:30;;;;;;;1.33;1.17;;;20.50;58.40;;;;;;5083127;28;20077;-48
2020/12/22 04:08:56;;;;;;;1.63;1.38;;;20.50;57.80;;;;;;5091771;28;20116;-51
2020/12/22 04:11:23;;;;;;;1.77;1.30;;;20.50;57.80;;;;;;5087776;28;20038;-53
2020/12/22 04:13:49;;;;;;;1.42;1.10;;;20.50;57.80;;;;;;5084125;28;20049;-51
2020/12/22 04:16:16;;;;;;;2.70;1.20;;;20.50;57.80;;;;;;5092704;28;20300;-49
2020/12/22 04:18:42;;;;;;;1.48;0.90;;;20.50;57.80;;;;;;5081999;28;20047;-51
2020/12/22 04:21:10;;;;;;;1.33;0.82;;;20.50;57.80;;;;;;5093429;28;20044;-49
2020/12/22 04:23:36;;;;;;;0.88;0.70;;;20.50;57.80;;;;;;5083522;28;20583;-52
2020/12/22 04:26:03;;;;;;;1.45;0.95;;;20.50;57.80;;;;;;5088029;28;20599;-51
2020/12/22 04:28:29;;;;;;;2.45;1.05;;;20.50;57.80;;;;;;5101428;28;20044;-51
2020/12/22 04:30:56;;;;;;;1.67;1.13;;;20.50;58.40;;;;;;5085691;28;20122;-49
2020/12/22 04:33:22;;;;;;;1.27;1.17;;;20.50;57.80;;;;;;5102143;28;20075;-52
2020/12/22 04:35:49;;;;;;;1.20;1.08;;;20.50;57.80;;;;;;5084303;28;20117;-51
2020/12/22 04:38:16;;;;;;;1.75;0.63;;;20.50;57.80;;;;;;5096765;28;20112;-52
2020/12/22 04:40:43;;;;;;;1.63;0.95;;;20.50;57.80;;;;;;5101097;28;20162;-52
2020/12/22 04:43:09;;;;;;;1.65;0.55;;;20.50;57.80;;;;;;5087137;28;20128;-49
2020/12/22 04:45:36;;;;;;;1.48;0.63;;;20.50;57.80;;;;;;5091515;28;20048;-52
2020/12/22 04:48:03;;;;;;;1.25;1.15;;;20.50;57.80;;;;;;5082883;28;20048;-52
2020/12/22 04:50:34;;;;;;;0.95;0.50;;;20.50;57.80;;;;;;5097999;28;20112;-53
2020/12/22 04:53:00;;;;;;;1.80;0.68;;;20.50;57.80;;;;;;5097460;28;20068;-52
2020/12/22 04:55:27;;;;;;;0.85;0.50;;;20.50;57.80;;;;;;5089011;28;20048;-51
2020/12/22 04:57:56;;;;;;;3.80;0.65;;;20.50;57.80;;;;;;5095681;28;20044;-57
2020/12/22 05:00:22;;;;;;;0.95;0.80;;;20.50;57.80;;;;;;5086611;28;20130;-53
2020/12/22 05:02:51;;;;;;;1.60;0.73;;;20.50;57.80;;;;;;5095020;28;20047;-52
2020/12/22 05:05:19;;;;;;;1.13;1.00;;;20.50;57.80;;;;;;5092101;28;20045;-51
2020/12/22 05:07:45;;;;;;;0.75;0.63;;;20.50;57.80;;;;;;5090256;28;20515;-53
2020/12/22 05:10:13;;;;;;;0.70;0.68;;;20.50;57.80;;;;;;5105489;28;20514;-57
2020/12/22 05:12:42;;;;;;;1.55;0.82;;;20.50;57.80;;;;;;5086080;28;20071;-53
2020/12/22 05:15:09;;;;;;;0.43;0.43;;;20.60;57.90;;;;;;5089850;28;20123;-55
2020/12/22 05:17:41;;;;;;;1.95;0.68;;;20.50;58.40;;;;;;5091100;28;20548;-49
2020/12/22 05:20:11;;;;;;;0.70;0.70;;;20.60;57.90;;;;;;5093373;28;20094;-55
2020/12/22 05:22:37;;;;;;;0.35;0.35;;;20.60;57.90;;;;;;5103316;28;20519;-53
2020/12/22 05:25:04;;;;;;;0.68;0.45;;;20.50;57.90;;;;;;5085953;28;20083;-52
2020/12/22 05:27:32;;;;;;;0.75;0.32;;;20.60;58.00;;;;;;5100679;28;20146;-52
2020/12/22 05:30:02;;;;;;;1.15;0.80;;;20.50;57.90;;;;;;5078849;28;20044;-53
2020/12/22 05:32:30;;;;;;;1.58;0.88;;;20.50;57.90;;;;;;5094532;28;20051;-51
2020/12/22 05:34:56;;;;;;;0.55;0.55;;;20.50;57.90;;;;;;5094250;28;20048;-55
2020/12/22 05:37:24;;;;;;;0.50;0.40;;;20.50;57.90;;;;;;5087560;28;20048;-52
2020/12/22 05:39:51;;;;;;;0.50;0.45;;;20.50;57.90;;;;;;5102045;28;20352;-52
2020/12/22 05:42:18;;;;;;;0.77;0.30;;;20.50;57.90;;;;;;5085526;28;20047;-51
2020/12/22 05:44:49;;;;;;;0.40;0.40;;;20.50;57.90;;;;;;5093396;28;20040;-51
2020/12/22 05:47:19;;;;;;;0.38;0.35;;;20.60;58.00;;;;;;5085852;28;20631;-52
2020/12/22 05:49:51;;;;;;;0.60;0.20;;;20.60;58.00;;;;;;5086098;28;20072;-49
2020/12/22 05:52:20;;;;;;;0.68;0.20;;;20.60;58.00;;;;;;5104886;28;20525;-58
2020/12/22 05:54:47;;;;;;;0.40;0.30;;;20.60;58.00;;;;;;5085142;28;20499;-49
2020/12/22 05:57:18;;;;;;;1.45;0.65;;;20.60;58.00;;;;;;5097428;28;20047;-49
2020/12/22 05:59:45;;;;;;;0.45;0.28;;;20.50;57.90;;;;;;5083806;28;20048;-49
2020/12/22 06:02:25;;;;;;;1.15;0.60;;;20.50;57.90;;;;;;5094100;28;20044;-50
2020/12/22 06:04:53;;;;;;;0.55;0.20;;;20.60;58.00;;;;;;5099209;28;20093;-50
2020/12/22 06:07:20;;;;;;;0.40;0.40;;;20.50;58.00;;;;;;5084806;28;20063;-50
2020/12/22 06:09:47;;;;;;;0.70;0.32;;;20.50;57.90;;;;;;5101474;28;20047;-50
2020/12/22 06:12:14;;;;;;;0.40;0.20;;;20.50;57.90;;;;;;5084524;28;20048;-50
2020/12/22 06:14:44;;;;;;;0.35;0.35;;;20.60;58.00;;;;;;5091020;28;20055;-52
2020/12/22 06:17:11;;;;;;;0.30;0.20;;;20.60;58.00;;;;;;5086077;28;20113;-51
2020/12/22 06:19:40;;;;;;;0.30;0.30;;;20.60;58.00;;;;;;5084843;28;20056;-53
2020/12/22 06:22:10;;;;;;;1.00;0.10;;;20.60;58.00;;;;;;5102764;28;20055;-53
2020/12/22 06:24:37;;;;;;;0.20;0.10;;;20.60;58.10;;;;;;5091885;28;20043;-51
2020/12/22 06:27:06;;;;;;;0.35;0.30;;;20.60;58.10;;;;;;5094682;28;20081;-52
2020/12/22 06:29:33;;;;;;;0.40;0.40;;;20.60;58.10;;;;;;5086763;28;20147;-53
2020/12/22 06:32:22;;;;;;;1.20;0.30;;;20.60;58.10;;;;;;5089175;28;20079;-52
2020/12/22 06:34:49;;;;;;;0.52;0.30;;;20.60;58.00;;;;;;5098729;28;20412;-54
2020/12/22 06:37:16;;;;;;;1.75;0.40;;;20.60;58.10;;;;;;5085720;28;20164;-51
2020/12/22 06:39:43;;;;;;;0.20;0.20;;;20.60;58.00;;;;;;5100943;28;20044;-53
2020/12/22 06:42:11;;;;;;;0.77;0.20;;;20.60;58.00;;;;;;5083241;28;20048;-50
2020/12/22 06:44:38;;;;;;;0.70;0.55;;;20.60;58.00;;;;;;5090697;28;20036;-51
2020/12/22 06:47:05;;;;;;;1.27;0.20;;;20.60;58.00;;;;;;5090305;28;20126;-52
2020/12/22 06:49:52;;;;;;;0.17;0.10;;;20.60;58.10;;;;;;5094209;28;20557;-51
2020/12/22 06:52:35;;;;;;;0.30;0.10;;;20.60;58.00;;;;;;5103597;28;20063;-52
2020/12/22 06:55:04;;;;;;;0.93;0.32;;;20.60;58.00;;;;;;5094121;28;20052;-50
2020/12/22 06:57:45;;;;;;;0.40;0.22;;;20.60;58.10;;;;;;5101183;28;20040;-55
2020/12/22 07:00:24;;;;;;;0.90;0.10;;;20.60;58.10;;;;;;5079217;28;20048;-50
2020/12/22 07:02:51;;;;;;;2.30;0.10;;;20.60;58.10;;;;;;5097503;28;20068;-51
2020/12/22 07:05:38;;;;;;;0.68;0.68;;;20.60;58.10;;;;;;5090417;28;20053;-51
2020/12/22 07:08:06;;;;;;;0.30;0.20;;;20.60;58.00;;;;;;5090941;28;20575;-53
2020/12/22 07:10:37;;;;;;;0.28;0.22;;;20.60;58.10;;;;;;5102230;28;20166;-51
2020/12/22 07:13:07;;;;;;;0.13;0.10;;;20.60;58.10;;;;;;5081880;28;20162;-50
2020/12/22 07:15:35;;;;;;;0.30;0.17;;;20.60;58.10;;;;;;5085451;28;20052;-49
2020/12/22 07:18:06;;;;;;;0.20;0.10;;;20.60;58.10;;;;;;5080406;28;20502;-57
2020/12/22 07:20:34;;;;;;;1.27;0.13;;;20.60;58.10;;;;;;5095038;28;20453;-51
2020/12/22 07:23:03;;;;;;;0.40;0.10;;;20.60;58.60;;;;;;5094909;28;20123;-52
2020/12/22 07:25:30;;;;;;;0.20;0.20;;;20.60;58.10;;;;;;5086534;28;20040;-50
2020/12/22 07:27:56;;;;;;;0.10;0.10;;;20.60;58.10;;;;;;5100039;28;20323;-52
2020/12/22 07:30:23;;;;;;;0.20;0.20;;;20.60;58.00;;;;;;5083751;28;20043;-51
2020/12/22 07:32:52;;;;;;;0.43;0.10;;;20.60;58.10;;;;;;5092222;28;20551;-52
2020/12/22 07:35:19;;;;;;;0.22;0.17;;;20.60;58.00;;;;;;5089579;28;20056;-49
2020/12/22 07:37:45;;;;;;;2.70;0.17;;;20.60;58.10;;;;;;5084182;28;20056;-50
2020/12/22 07:40:13;;;;;;;1.20;0.30;;;20.60;58.00;;;;;;5103436;28;20543;-54
2020/12/22 07:42:39;;;;;;;0.68;0.30;;;20.60;58.00;;;;;;5083165;28;20058;-52
2020/12/22 07:45:07;;;;;;;3.90;0.47;;;20.60;58.00;;;;;;5090000;28;20155;-50
2020/12/22 07:47:34;;;;;;;1.25;0.35;;;20.60;58.00;;;;;;5081090;28;20058;-49
2020/12/22 07:50:14;;;;;;;0.38;0.20;;;20.60;58.00;;;;;;5089379;28;20098;-50
2020/12/22 07:52:41;;;;;;;0.28;0.20;;;20.70;58.00;;;;;;5099710;28;20036;-54
2020/12/22 07:55:08;;;;;;;0.40;0.30;;;20.60;58.00;;;;;;5081261;28;20040;-52
2020/12/22 07:57:40;;;;;;;0.68;0.10;;;20.60;58.00;;;;;;5100663;28;20086;-49
2020/12/22 08:00:08;;;;;;;0.20;0.10;;;20.70;58.10;;;;;;5081033;28;20055;-52
2020/12/22 08:02:35;;;;;;;0.98;0.10;;;20.60;58.00;;;;;;5091864;28;20044;-52
2020/12/22 08:05:09;;;;;;;0.80;0.10;;;20.70;58.00;;;;;;5093855;28;20563;-50
2020/12/22 08:07:36;;;;;;;0.10;0.10;;;20.70;58.00;;;;;;5083347;28;20044;-54
2020/12/22 08:10:10;;;;;;;0.22;0.22;;;20.60;58.00;;;;;;5101961;28;20353;-55
2020/12/22 08:12:38;;;;;;;0.22;0.10;;;20.70;58.10;;;;;;5090079;28;20399;-55
2020/12/22 08:15:06;;;;;;;0.30;0.20;;;20.70;58.10;;;;;;5089549;28;20131;-53
2020/12/22 08:17:35;;;;;;;0.32;0.10;;;20.70;58.10;;;;;;5081363;28;20052;-52
2020/12/22 08:20:03;;;;;;;0.25;0.10;;;20.70;58.10;;;;;;5085830;28;20134;-56
2020/12/22 08:22:32;;;;;;;0.10;0.10;;;20.70;58.10;;;;;;5101194;28;20915;-48
2020/12/22 08:25:00;;;;;;;0.10;0.10;;;20.70;58.20;;;;;;5081729;28;20072;-52
2020/12/22 08:27:27;;;;;;;2.03;0.20;;;20.70;58.10;;;;;;5099256;28;20062;-52
2020/12/22 08:29:54;;;;;;;0.28;0.10;;;20.70;58.10;;;;;;5079262;28;20114;-53
2020/12/22 08:32:24;;;;;;;0.30;0.10;;;20.70;58.10;;;;;;5080736;28;20048;-50
2020/12/22 08:34:53;;;;;;;1.00;0.20;;;20.70;58.10;;;;;;5097118;28;20536;-51
2020/12/22 08:37:25;;;;;;;1.65;0.10;;;20.70;58.10;;;;;;5083033;28;20076;-52
2020/12/22 08:39:52;;;;;;;0.40;0.10;;;20.70;58.20;;;;;;5098933;28;20048;-56
2020/12/22 08:42:20;;;;;;;0.55;0.10;;;20.70;58.10;;;;;;5083177;28;20220;-52
2020/12/22 08:44:51;;;;;;;0.82;0.25;;;20.70;58.10;;;;;;5085624;28;20113;-55
2020/12/22 08:47:51;;;;;;;0.40;0.22;;;20.70;58.10;;;;;;5082993;28;20040;-50
2020/12/22 08:50:18;;;;;;;2.75;0.20;;;20.70;58.10;;;;;;5091669;28;20096;-52
2020/12/22 08:52:45;;;;;;;0.52;0.10;;;20.70;58.20;;;;;;5098385;28;20040;-53
2020/12/22 08:55:12;;;;;;;2.05;0.20;;;20.70;58.20;;;;;;5082834;28;20162;-51
2020/12/22 08:57:40;;;;;;;1.08;0.10;;;20.70;58.20;;;;;;5099298;28;20059;-55
2020/12/22 09:00:13;;;;;;;1.23;0.10;;;20.70;58.20;;;;;;5080741;28;20051;-56
2020/12/22 09:02:41;;;;;;;0.22;0.10;;;20.70;58.20;;;;;;5091489;28;20477;-50
2020/12/22 09:05:13;;;;;;;1.35;0.20;;;20.70;58.20;;;;;;5091879;28;20047;-54
2020/12/22 09:07:40;;;;;;;0.30;0.15;;;20.70;58.20;;;;;;5086965;28;20131;-51
2020/12/22 09:10:07;;;;;;;1.38;0.25;;;20.70;58.20;;;;;;5100549;28;20419;-54
2020/12/22 09:12:35;;;;;;;0.17;0.10;;;20.70;58.20;;;;;;5093869;28;20067;-48
2020/12/22 09:15:03;;;;;;;0.20;0.10;;;20.70;58.10;;;;;;5082991;28;20046;-51
2020/12/22 09:17:32;;;;;;;0.77;0.30;;;20.70;58.20;;;;;;5084522;28;20618;-62
2020/12/22 09:20:00;;;;;;;1.17;0.20;;;20.70;58.20;;;;;;5089579;28;20123;-58
2020/12/22 09:22:30;;;;;;;1.33;0.20;;;20.70;58.20;;;;;;5105532;28;20055;-52
2020/12/22 09:24:58;;;;;;;0.40;0.20;;;20.70;58.20;;;;;;5085479;28;20443;-50
2020/12/22 09:27:29;;;;;;;1.95;0.30;;;20.80;58.20;;;;;;5099811;28;20589;-54
2020/12/22 09:29:56;;;;;;;0.25;0.25;;;20.80;58.20;;;;;;5082946;28;20420;-49
2020/12/22 09:32:23;;;;;;;0.93;0.15;;;20.70;58.80;;;;;;5096131;28;20062;-59
2020/12/22 09:34:49;;;;;;;2.67;0.30;;;20.80;58.20;;;;;;5100380;28;20076;-50
2020/12/22 09:37:16;;;;;;;0.43;0.10;;;20.70;58.20;;;;;;5087316;28;20047;-48
2020/12/22 09:39:45;;;;;;;0.20;0.20;;;20.80;58.30;;;;;;5102211;28;20728;-49
2020/12/22 09:42:12;;;;;;;0.43;0.43;;;20.80;58.30;;;;;;5084377;28;20057;-54
2020/12/22 09:44:38;;;;;;;0.47;0.30;;;20.80;58.30;;;;;;5091928;28;20035;-53
2020/12/22 09:47:05;;;;;;;0.65;0.40;;;20.80;58.30;;;;;;5088123;28;20036;-49
2020/12/22 09:49:32;;;;;;;0.40;0.20;;;20.80;58.30;;;;;;5085787;28;20752;-50
2020/12/22 09:51:58;;;;;;;0.70;0.30;;;20.80;58.20;;;;;;5103747;28;20059;-48
2020/12/22 09:54:26;;;;;;;0.70;0.30;;;20.80;58.30;;;;;;5086028;28;20054;-49
2020/12/22 09:56:53;;;;;;;0.77;0.40;;;20.80;58.30;;;;;;5097029;28;20035;-55
2020/12/22 09:59:20;;;;;;;2.28;0.80;;;20.80;58.20;;;;;;5091418;28;20052;-50
2020/12/22 10:01:48;;;;;;;2.95;0.80;;;20.80;58.20;;;;;;5086443;28;20040;-50
2020/12/22 10:04:15;;;;;;;1.08;0.70;;;20.80;58.20;;;;;;5105899;28;20055;-54
2020/12/22 10:06:41;;;;;;;0.65;0.43;;;20.80;58.20;;;;;;5085138;28;20139;-56
2020/12/22 10:09:08;;;;;;;2.97;0.90;;;20.80;58.20;;;;;;5097204;28;20047;-56
2020/12/22 10:11:37;;;;;;;2.15;0.50;;;20.80;58.20;;;;;;5087079;28;20523;-50
2020/12/22 10:14:06;;;;;;;1.90;0.82;;;20.80;58.20;;;;;;5092299;28;20095;-50
2020/12/22 10:16:33;;;;;;;1.40;0.98;;;20.80;58.20;;;;;;5093062;27;20446;-52
2020/12/22 10:19:00;;;;;;;2.80;1.45;;;20.80;58.20;;;;;;5084624;28;20045;-51
2020/12/22 10:21:26;;;;;;;0.65;0.63;;;20.80;58.20;;;;;;5100959;28;20474;-48
2020/12/22 10:23:59;;;;;;;1.60;1.02;;;20.80;58.10;;;;;;5082181;28;20067;-49
2020/12/22 10:26:26;;;;;;;1.45;0.70;;;20.80;58.20;;;;;;5085376;28;20082;-49
2020/12/22 10:28:53;;;;;;;1.95;0.80;;;20.80;58.20;;;;;;5094786;28;20044;-52
2020/12/22 10:31:22;;;;;;;3.40;1.00;;;20.90;58.20;;;;;;5084937;28;20048;-57
2020/12/22 10:33:48;;;;;;;3.38;1.10;;;20.80;58.20;;;;;;5101063;28;20043;-51
2020/12/22 10:36:17;;;;;;;2.00;0.90;;;20.80;58.20;;;;;;5084113;28;20052;-53
2020/12/22 10:38:43;;;;;;;1.52;0.80;;;20.80;58.20;;;;;;5085311;28;20047;-58
2020/12/22 10:41:10;;;;;;;2.60;0.98;;;20.80;58.20;;;;;;5086490;28;20052;-53
2020/12/22 10:43:37;;;;;;;4.00;1.25;;;20.80;58.20;;;;;;5088725;28;20040;-53
2020/12/22 10:46:04;;;;;;;2.45;1.30;;;20.80;58.10;;;;;;5091529;28;20113;-52
2020/12/22 10:48:31;;;;;;;1.80;1.10;;;20.80;58.10;;;;;;5084850;28;20071;-49
2020/12/22 10:50:58;;;;;;;2.88;1.67;;;20.90;58.20;;;;;;5093009;28;20051;-49
2020/12/22 10:53:25;;;;;;;1.80;1.20;;;20.80;58.20;;;;;;5089348;28;20774;-50
2020/12/22 10:55:53;;;;;;;3.92;2.17;;;20.80;58.20;;;;;;5088917;28;20657;-51
2020/12/22 10:58:20;;;;;;;6.43;2.28;;;20.90;58.20;;;;;;5078916;28;20043;-50
2020/12/22 11:00:47;;;;;;;3.63;1.60;;;20.90;58.30;;;;;;5086397;28;20047;-50
2020/12/22 11:03:17;;;;;;;8.05;3.08;;;20.80;58.30;;;;;;5095174;28;20085;-44
2020/12/22 11:06:06;;;;;;;8.02;3.65;;;20.80;58.40;;;;;;5082589;28;20051;-56
2020/12/22 11:08:33;;;;;;;8.60;3.13;;;20.90;58.70;;;;;;5085236;28;20052;-43
2020/12/22 11:11:00;;;;;;;9.90;4.05;;;20.80;58.80;;;;;;5086840;28;20135;-44
2020/12/22 11:13:27;;;;;;;9.18;4.38;;;20.80;58.90;;;;;;5089694;28;20063;-47
2020/12/22 11:15:53;;;;;;;8.68;4.18;;;20.90;59.10;;;;;;5091976;28;20044;-44
2020/12/22 11:18:20;;;;;;;10.02;4.00;;;20.90;59.10;;;;;;5082018;28;20046;-46
2020/12/22 11:20:47;;;;;;;12.18;4.32;;;20.90;59.20;;;;;;5086649;28;20050;-43
2020/12/22 11:23:14;;;;;;;9.32;5.07;;;20.90;59.30;;;;;;5086366;28;20044;-45
2020/12/22 11:25:41;;;;;;;13.68;5.45;;;20.90;59.30;;;;;;5088225;28;20396;-43
2020/12/22 11:28:07;;;;;;;6.95;4.10;;;20.90;59.40;;;;;;5089159;28;20131;-45
2020/12/22 11:30:34;;;;;;;9.77;5.32;;;20.90;59.40;;;;;;5089029;28;20051;-43
2020/12/22 11:33:02;;;;;;;9.10;5.72;;;20.90;59.40;;;;;;5087230;28;20036;-43
2020/12/22 11:35:29;;;;;;;12.43;6.57;;;20.90;59.50;;;;;;5086521;28;20052;-43
2020/12/22 11:37:57;;;;;;;7.25;4.57;;;20.90;59.50;;;;;;5089357;28;20048;-44
2020/12/22 11:40:24;;;;;;;10.52;4.88;;;21.00;59.60;;;;;;5088613;28;20096;-43
2020/12/22 11:42:51;;;;;;;8.25;5.80;;;21.00;59.70;;;;;;5085267;28;20036;-43
2020/12/22 11:45:17;;;;;;;9.55;5.32;;;21.00;59.70;;;;;;5086846;28;20102;-47
2020/12/22 11:47:44;;;;;;;16.20;6.63;;;21.00;59.80;;;;;;5086134;28;20036;-45
2020/12/22 11:50:11;;;;;;;14.38;7.10;;;21.00;59.80;;;;;;5084582;28;20048;-44
2020/12/22 11:52:38;;;;;;;19.55;6.68;;;21.00;59.90;;;;;;5098885;28;20059;-43
2020/12/22 11:55:05;;;;;;;12.77;6.22;;;21.00;59.90;;;;;;5088629;28;20097;-47
2020/12/22 11:57:32;;;;;;;12.55;5.95;;;21.00;60.00;;;;;;5091607;28;20043;-53
2020/12/22 11:59:59;;;;;;;14.48;7.00;;;21.00;60.00;;;;;;5086582;28;20534;-46
2020/12/22 12:02:25;;;;;;;15.40;6.45;;;21.00;60.00;;;;;;5082358;28;20044;-43
2020/12/22 12:04:52;;;;;;;13.05;7.55;;;21.00;60.00;;;;;;5096308;28;20047;-47
2020/12/22 12:07:19;;;;;;;8.55;5.90;;;21.00;60.00;;;;;;5088287;28;20052;-50
2020/12/22 12:09:45;;;;;;;18.17;7.18;;;21.00;60.00;;;;;;5090467;28;20111;-43
2020/12/22 12:12:13;;;;;;;9.35;6.30;;;21.00;60.00;;;;;;5087780;28;20048;-50
2020/12/22 12:14:39;;;;;;;17.92;6.75;;;21.00;60.00;;;;;;5083743;28;20123;-43
2020/12/22 12:17:06;;;;;;;21.40;8.23;;;21.00;60.00;;;;;;5091431;28;20048;-44
2020/12/22 12:19:33;;;;;;;14.68;7.03;;;21.10;60.10;;;;;;5084085;28;20044;-50
2020/12/22 12:22:00;;;;;;;17.02;7.30;;;21.10;60.10;;;;;;5095016;28;20082;-43
2020/12/22 12:24:27;;;;;;;8.90;6.25;;;21.10;60.10;;;;;;5088052;28;20087;-48
2020/12/22 12:26:54;;;;;;;16.05;6.95;;;21.10;60.10;;;;;;5084610;28;20587;-45
2020/12/22 12:29:22;;;;;;;11.00;6.60;;;21.10;60.10;;;;;;5091920;28;20078;-44
2020/12/22 12:31:49;;;;;;;12.00;7.47;;;21.10;60.10;;;;;;5083330;28;20475;-44
2020/12/22 12:34:16;;;;;;;13.50;7.28;;;21.10;60.10;;;;;;5085187;28;20060;-43
2020/12/22 12:36:43;;;;;;;15.15;8.07;;;21.10;60.00;;;;;;5090121;28;20068;-43
2020/12/22 12:39:09;;;;;;;10.80;7.05;;;21.10;60.00;;;;;;5088296;28;20040;-43
2020/12/22 12:41:37;;;;;;;15.50;8.15;;;21.10;60.00;;;;;;5089299;28;20102;-43
2020/12/22 12:44:03;;;;;;;13.68;8.05;;;21.10;60.00;;;;;;5086953;28;20090;-48
2020/12/22 12:46:31;;;;;;;15.65;9.13;;;21.10;60.00;;;;;;5086506;28;20044;-44
2020/12/22 12:48:58;;;;;;;12.82;7.55;;;21.10;60.10;;;;;;5085536;28;20040;-44